sensor_id;sensor_type;location;lat;lon;timestamp;pressure;altitude;pressure_sealevel;temperature;humidity
9822;BME280;4950;46.042;14.472;2023-02-28T00:00:06;98754.25;;;1.84;65.91
9822;BME280;4950;46.042;14.472;2023-02-28T00:02:36;98750.66;;;1.87;66.50
9822;BME280;4950;46.042;14.472;2023-02-28T00:05:03;98759.16;;;1.87;65.68
9822;BME280;4950;46.042;14.472;2023-02-28T00:07:30;98763.16;;;1.91;65.17
9822;BME280;4950;46.042;14.472;2023-02-28T00:09:57;98760.59;;;1.91;65.13
9822;BME280;4950;46.042;14.472;2023-02-28T00:12:26;98761.63;;;1.89;65.73
9822;BME280;4950;46.042;14.472;2023-02-28T00:14:53;98761.00;;;1.85;65.13
9822;BME280;4950;46.042;14.472;2023-02-28T00:17:20;98765.06;;;1.75;65.53
9822;BME280;4950;46.042;14.472;2023-02-28T00:19:47;98769.28;;;1.76;66.46
9822;BME280;4950;46.042;14.472;2023-02-28T00:22:15;98770.16;;;1.75;66.37
9822;BME280;4950;46.042;14.472;2023-02-28T00:24:41;98768.78;;;1.84;66.62
9822;BME280;4950;46.042;14.472;2023-02-28T00:27:10;98768.97;;;1.81;67.07
9822;BME280;4950;46.042;14.472;2023-02-28T00:29:38;98770.81;;;1.78;66.13
9822;BME280;4950;46.042;14.472;2023-02-28T00:32:06;98770.97;;;1.90;65.97
9822;BME280;4950;46.042;14.472;2023-02-28T00:34:33;98774.31;;;1.90;66.20
9822;BME280;4950;46.042;14.472;2023-02-28T00:37:02;98772.34;;;1.81;65.62
9822;BME280;4950;46.042;14.472;2023-02-28T00:39:29;98768.34;;;1.77;65.49
9822;BME280;4950;46.042;14.472;2023-02-28T00:41:56;98776.94;;;1.76;66.16
9822;BME280;4950;46.042;14.472;2023-02-28T00:44:23;98770.41;;;1.85;66.23
9822;BME280;4950;46.042;14.472;2023-02-28T00:46:51;98775.22;;;1.89;66.21
9822;BME280;4950;46.042;14.472;2023-02-28T00:49:19;98774.50;;;1.87;66.54
9822;BME280;4950;46.042;14.472;2023-02-28T00:51:46;98777.78;;;1.89;66.21
9822;BME280;4950;46.042;14.472;2023-02-28T00:54:13;98776.34;;;1.85;65.40
9822;BME280;4950;46.042;14.472;2023-02-28T00:56:40;98778.56;;;1.77;66.26
9822;BME280;4950;46.042;14.472;2023-02-28T00:59:08;98776.31;;;1.72;66.34
9822;BME280;4950;46.042;14.472;2023-02-28T01:01:34;98778.41;;;1.80;65.38
9822;BME280;4950;46.042;14.472;2023-02-28T01:04:03;98782.16;;;1.74;65.58
9822;BME280;4950;46.042;14.472;2023-02-28T01:06:30;98783.69;;;1.77;66.07
9822;BME280;4950;46.042;14.472;2023-02-28T01:08:56;98780.72;;;1.70;66.29
9822;BME280;4950;46.042;14.472;2023-02-28T01:11:23;98782.34;;;1.71;65.54
9822;BME280;4950;46.042;14.472;2023-02-28T01:13:51;98785.34;;;1.78;65.58
9822;BME280;4950;46.042;14.472;2023-02-28T01:16:18;98776.16;;;1.88;65.68
9822;BME280;4950;46.042;14.472;2023-02-28T01:18:44;98773.31;;;1.93;65.72
9822;BME280;4950;46.042;14.472;2023-02-28T01:21:15;98775.34;;;1.88;65.27
9822;BME280;4950;46.042;14.472;2023-02-28T01:23:42;98781.38;;;1.87;64.85
9822;BME280;4950;46.042;14.472;2023-02-28T01:26:12;98772.59;;;1.91;65.27
9822;BME280;4950;46.042;14.472;2023-02-28T01:28:39;98769.22;;;1.90;65.73
9822;BME280;4950;46.042;14.472;2023-02-28T01:31:05;98771.69;;;1.92;64.85
9822;BME280;4950;46.042;14.472;2023-02-28T01:33:32;98774.50;;;1.87;65.71
9822;BME280;4950;46.042;14.472;2023-02-28T01:36:00;98777.78;;;1.89;65.81
9822;BME280;4950;46.042;14.472;2023-02-28T01:38:29;98773.53;;;1.90;66.06
9822;BME280;4950;46.042;14.472;2023-02-28T01:40:56;98767.78;;;1.99;65.66
9822;BME280;4950;46.042;14.472;2023-02-28T01:43:24;98762.88;;;1.96;66.18
9822;BME280;4950;46.042;14.472;2023-02-28T01:45:51;98769.13;;;1.92;65.38
9822;BME280;4950;46.042;14.472;2023-02-28T01:48:19;98769.44;;;2.00;65.62
9822;BME280;4950;46.042;14.472;2023-02-28T01:50:47;98764.22;;;2.02;65.62
9822;BME280;4950;46.042;14.472;2023-02-28T01:53:16;98768.81;;;1.96;65.78
9822;BME280;4950;46.042;14.472;2023-02-28T01:55:47;98766.34;;;1.95;66.21
9822;BME280;4950;46.042;14.472;2023-02-28T01:58:15;98760.22;;;1.97;65.40
9822;BME280;4950;46.042;14.472;2023-02-28T02:00:42;98761.75;;;2.00;65.73
9822;BME280;4950;46.042;14.472;2023-02-28T02:03:12;98757.19;;;2.05;65.83
9822;BME280;4950;46.042;14.472;2023-02-28T02:05:40;98766.06;;;2.00;66.53
9822;BME280;4950;46.042;14.472;2023-02-28T02:08:09;98762.97;;;1.94;65.38
9822;BME280;4950;46.042;14.472;2023-02-28T02:10:41;98761.13;;;1.96;65.84
9822;BME280;4950;46.042;14.472;2023-02-28T02:13:22;98767.56;;;1.89;66.92
9822;BME280;4950;46.042;14.472;2023-02-28T02:16:00;98765.63;;;1.93;66.53
9822;BME280;4950;46.042;14.472;2023-02-28T02:18:36;98762.44;;;1.89;66.44
9822;BME280;4950;46.042;14.472;2023-02-28T02:21:30;98758.56;;;1.96;67.61
9822;BME280;4950;46.042;14.472;2023-02-28T02:27:27;98760.56;;;2.06;71.50
9822;BME280;4950;46.042;14.472;2023-02-28T02:30:40;98761.66;;;2.02;72.08
9822;BME280;4950;46.042;14.472;2023-02-28T02:36:06;98770.66;;;1.94;73.21
9822;BME280;4950;46.042;14.472;2023-02-28T02:38:37;98764.91;;;1.91;73.39
9822;BME280;4950;46.042;14.472;2023-02-28T02:41:11;98768.34;;;1.77;74.76
9822;BME280;4950;46.042;14.472;2023-02-28T02:43:45;98771.81;;;1.76;73.46
9822;BME280;4950;46.042;14.472;2023-02-28T02:46:18;98768.16;;;1.80;72.80
9822;BME280;4950;46.042;14.472;2023-02-28T02:48:47;98765.59;;;1.80;72.62
9822;BME280;4950;46.042;14.472;2023-02-28T02:51:17;98768.88;;;1.82;73.92
9822;BME280;4950;46.042;14.472;2023-02-28T02:53:48;98765.59;;;1.80;73.89
9822;BME280;4950;46.042;14.472;2023-02-28T02:56:19;98770.09;;;1.76;75.46
9822;BME280;4950;46.042;14.472;2023-02-28T02:58:49;98770.66;;;1.94;73.71
9822;BME280;4950;46.042;14.472;2023-02-28T03:01:19;98772.41;;;1.94;73.82
9822;BME280;4950;46.042;14.472;2023-02-28T03:03:55;98785.13;;;1.81;74.29
9822;BME280;4950;46.042;14.472;2023-02-28T03:06:24;98773.66;;;1.74;73.65
9822;BME280;4950;46.042;14.472;2023-02-28T03:08:51;98770.91;;;1.77;74.67
9822;BME280;4950;46.042;14.472;2023-02-28T03:11:18;98774.47;;;1.74;74.82
9822;BME280;4950;46.042;14.472;2023-02-28T03:13:56;98775.38;;;1.73;75.95
9822;BME280;4950;46.042;14.472;2023-02-28T03:16:33;98778.00;;;1.86;74.69
9822;BME280;4950;46.042;14.472;2023-02-28T03:19:22;98783.34;;;1.69;73.89
9822;BME280;4950;46.042;14.472;2023-02-28T03:21:54;98777.66;;;1.51;75.11
9822;BME280;4950;46.042;14.472;2023-02-28T03:24:27;98777.91;;;1.46;75.92
9822;BME280;4950;46.042;14.472;2023-02-28T03:27:04;98772.91;;;1.45;76.16
9822;BME280;4950;46.042;14.472;2023-02-28T03:29:35;98772.69;;;1.48;76.55
9822;BME280;4950;46.042;14.472;2023-02-28T03:32:06;98773.34;;;1.51;77.01
9822;BME280;4950;46.042;14.472;2023-02-28T03:34:41;98781.66;;;1.55;76.76
9822;BME280;4950;46.042;14.472;2023-02-28T03:37:16;98776.81;;;1.50;75.70
9822;BME280;4950;46.042;14.472;2023-02-28T03:39:49;98772.78;;;1.46;76.15
9822;BME280;4950;46.042;14.472;2023-02-28T03:42:19;98769.72;;;1.41;77.69
9822;BME280;4950;46.042;14.472;2023-02-28T03:44:48;98770.44;;;1.43;77.53
9822;BME280;4950;46.042;14.472;2023-02-28T03:47:21;98769.25;;;1.49;76.84
9822;BME280;4950;46.042;14.472;2023-02-28T03:49:53;98763.91;;;1.52;75.98
9822;BME280;4950;46.042;14.472;2023-02-28T03:52:25;98771.59;;;1.52;74.30
9822;BME280;4950;46.042;14.472;2023-02-28T03:54:56;98765.38;;;1.56;74.55
9822;BME280;4950;46.042;14.472;2023-02-28T03:57:32;98775.34;;;1.61;72.48
9822;BME280;4950;46.042;14.472;2023-02-28T04:00:05;98772.06;;;1.58;70.22
9822;BME280;4950;46.042;14.472;2023-02-28T04:02:33;98772.69;;;1.62;68.43
9822;BME280;4950;46.042;14.472;2023-02-28T04:05:00;98773.59;;;1.61;67.66
9822;BME280;4950;46.042;14.472;2023-02-28T04:07:30;98778.63;;;1.63;67.79
9822;BME280;4950;46.042;14.472;2023-02-28T04:09:57;98772.19;;;1.70;67.71
9822;BME280;4950;46.042;14.472;2023-02-28T04:12:23;98773.53;;;1.75;67.56
9822;BME280;4950;46.042;14.472;2023-02-28T04:14:50;98765.13;;;1.73;66.47
9822;BME280;4950;46.042;14.472;2023-02-28T04:17:17;98769.44;;;1.73;67.43
9822;BME280;4950;46.042;14.472;2023-02-28T04:19:44;98781.69;;;1.82;66.54
9822;BME280;4950;46.042;14.472;2023-02-28T04:22:10;98772.97;;;1.85;66.70
9822;BME280;4950;46.042;14.472;2023-02-28T04:24:38;98782.31;;;1.86;66.56
9822;BME280;4950;46.042;14.472;2023-02-28T04:27:08;98776.00;;;1.77;66.11
9822;BME280;4950;46.042;14.472;2023-02-28T04:29:35;98783.13;;;1.86;66.57
9822;BME280;4950;46.042;14.472;2023-02-28T04:32:02;98780.22;;;1.78;65.96
9822;BME280;4950;46.042;14.472;2023-02-28T04:34:32;98776.25;;;1.87;66.13
9822;BME280;4950;46.042;14.472;2023-02-28T04:36:59;98788.19;;;1.73;66.85
9822;BME280;4950;46.042;14.472;2023-02-28T04:39:26;98790.47;;;1.78;66.39
9822;BME280;4950;46.042;14.472;2023-02-28T04:41:54;98792.81;;;1.81;66.99
9822;BME280;4950;46.042;14.472;2023-02-28T04:44:21;98793.28;;;1.73;66.77
9822;BME280;4950;46.042;14.472;2023-02-28T04:46:48;98792.91;;;1.80;67.28
9822;BME280;4950;46.042;14.472;2023-02-28T04:49:15;98793.28;;;1.73;66.81
9822;BME280;4950;46.042;14.472;2023-02-28T04:51:42;98788.09;;;1.75;66.80
9822;BME280;4950;46.042;14.472;2023-02-28T04:54:09;98788.81;;;1.77;66.87
9822;BME280;4950;46.042;14.472;2023-02-28T04:56:35;98789.16;;;1.85;66.29
9822;BME280;4950;46.042;14.472;2023-02-28T04:59:03;98788.03;;;1.89;66.26
9822;BME280;4950;46.042;14.472;2023-02-28T05:01:31;98786.31;;;1.90;66.63
9822;BME280;4950;46.042;14.472;2023-02-28T05:04:00;98790.13;;;1.97;66.47
9822;BME280;4950;46.042;14.472;2023-02-28T05:06:29;98792.66;;;1.97;66.59
9822;BME280;4950;46.042;14.472;2023-02-28T05:08:56;98793.41;;;1.99;65.52
9822;BME280;4950;46.042;14.472;2023-02-28T05:11:24;98787.56;;;1.97;66.76
9822;BME280;4950;46.042;14.472;2023-02-28T05:13:52;98787.66;;;1.95;66.40
9822;BME280;4950;46.042;14.472;2023-02-28T05:16:20;98789.69;;;1.90;66.81
9822;BME280;4950;46.042;14.472;2023-02-28T05:18:47;98792.16;;;1.92;66.36
9822;BME280;4950;46.042;14.472;2023-02-28T05:21:33;98793.38;;;1.86;67.02
9822;BME280;4950;46.042;14.472;2023-02-28T05:24:01;98796.66;;;1.88;65.98
9822;BME280;4950;46.042;14.472;2023-02-28T05:26:28;98800.03;;;1.89;67.49
9822;BME280;4950;46.042;14.472;2023-02-28T05:28:55;98797.91;;;1.95;66.59
9822;BME280;4950;46.042;14.472;2023-02-28T05:31:24;98793.13;;;2.04;66.65
9822;BME280;4950;46.042;14.472;2023-02-28T05:33:50;98799.47;;;2.11;66.23
9822;BME280;4950;46.042;14.472;2023-02-28T05:36:18;98793.13;;;2.04;65.66
9822;BME280;4950;46.042;14.472;2023-02-28T05:38:46;98794.03;;;2.03;65.49
9822;BME280;4950;46.042;14.472;2023-02-28T05:41:13;98796.31;;;2.07;66.04
9822;BME280;4950;46.042;14.472;2023-02-28T05:43:40;98799.06;;;2.04;65.53
9822;BME280;4950;46.042;14.472;2023-02-28T05:46:09;98798.03;;;2.07;66.05
9822;BME280;4950;46.042;14.472;2023-02-28T05:48:39;98802.03;;;2.11;65.76
9822;BME280;4950;46.042;14.472;2023-02-28T05:51:07;98801.31;;;2.09;66.18
9822;BME280;4950;46.042;14.472;2023-02-28T05:53:34;98806.88;;;2.15;66.00
9822;BME280;4950;46.042;14.472;2023-02-28T05:56:01;98808.50;;;2.16;66.39
9822;BME280;4950;46.042;14.472;2023-02-28T05:58:28;98813.78;;;2.01;66.29
9822;BME280;4950;46.042;14.472;2023-02-28T06:00:56;98803.84;;;1.96;65.82
9822;BME280;4950;46.042;14.472;2023-02-28T06:03:23;98810.84;;;2.07;65.68
9822;BME280;4950;46.042;14.472;2023-02-28T06:05:51;98819.97;;;2.11;65.92
9822;BME280;4950;46.042;14.472;2023-02-28T06:08:18;98816.97;;;2.04;65.65
9822;BME280;4950;46.042;14.472;2023-02-28T06:10:45;98821.91;;;2.07;65.04
9822;BME280;4950;46.042;14.472;2023-02-28T06:13:11;98823.84;;;2.04;65.86
9822;BME280;4950;46.042;14.472;2023-02-28T06:15:38;98827.41;;;2.01;65.29
9822;BME280;4950;46.042;14.472;2023-02-28T06:18:06;98828.25;;;2.02;65.29
9822;BME280;4950;46.042;14.472;2023-02-28T06:20:33;98833.16;;;2.05;65.38
9822;BME280;4950;46.042;14.472;2023-02-28T06:23:02;98837.84;;;1.98;66.25
9822;BME280;4950;46.042;14.472;2023-02-28T06:25:29;98837.94;;;1.96;65.81
9822;BME280;4950;46.042;14.472;2023-02-28T06:27:56;98840.50;;;1.96;66.33
9822;BME280;4950;46.042;14.472;2023-02-28T06:30:23;98840.72;;;1.93;65.90
9822;BME280;4950;46.042;14.472;2023-02-28T06:32:52;98850.09;;;1.93;66.83
9822;BME280;4950;46.042;14.472;2023-02-28T06:35:19;98850.66;;;1.98;66.61
9822;BME280;4950;46.042;14.472;2023-02-28T06:37:46;98849.84;;;1.97;67.13
9822;BME280;4950;46.042;14.472;2023-02-28T06:40:15;98855.97;;;1.95;66.11
9822;BME280;4950;46.042;14.472;2023-02-28T06:42:42;98858.44;;;1.96;66.70
9822;BME280;4950;46.042;14.472;2023-02-28T06:45:09;98860.09;;;1.97;66.91
9822;BME280;4950;46.042;14.472;2023-02-28T06:47:37;98863.06;;;2.04;66.63
9822;BME280;4950;46.042;14.472;2023-02-28T06:50:04;98871.69;;;2.03;66.99
9822;BME280;4950;46.042;14.472;2023-02-28T06:52:31;98864.47;;;1.95;67.03
9822;BME280;4950;46.042;14.472;2023-02-28T06:55:01;98872.16;;;1.95;67.12
9822;BME280;4950;46.042;14.472;2023-02-28T06:57:30;98876.16;;;2.00;66.97
9822;BME280;4950;46.042;14.472;2023-02-28T06:59:57;98879.13;;;1.93;67.12
9822;BME280;4950;46.042;14.472;2023-02-28T07:02:25;98876.00;;;1.88;66.91
9822;BME280;4950;46.042;14.472;2023-02-28T07:04:52;98869.78;;;1.92;67.51
9822;BME280;4950;46.042;14.472;2023-02-28T07:07:19;98886.41;;;2.00;67.63
9822;BME280;4950;46.042;14.472;2023-02-28T07:09:46;98882.44;;;2.08;67.55
9822;BME280;4950;46.042;14.472;2023-02-28T07:12:13;98888.28;;;2.10;67.78
9822;BME280;4950;46.042;14.472;2023-02-28T07:14:41;98887.38;;;2.11;67.60
9822;BME280;4950;46.042;14.472;2023-02-28T07:17:08;98885.94;;;2.07;67.90
9822;BME280;4950;46.042;14.472;2023-02-28T07:19:37;98885.66;;;2.12;67.95
9822;BME280;4950;46.042;14.472;2023-02-28T07:22:04;98886.66;;;2.09;67.56
9822;BME280;4950;46.042;14.472;2023-02-28T07:24:31;98886.28;;;2.01;67.21
9822;BME280;4950;46.042;14.472;2023-02-28T07:26:58;98889.88;;;1.98;67.94
9822;BME280;4950;46.042;14.472;2023-02-28T07:29:26;98892.81;;;1.92;68.53
9822;BME280;4950;46.042;14.472;2023-02-28T07:31:54;98889.78;;;2.00;68.27
9822;BME280;4950;46.042;14.472;2023-02-28T07:34:21;98895.94;;;1.97;68.35
9822;BME280;4950;46.042;14.472;2023-02-28T07:36:48;98898.66;;;1.94;68.21
9822;BME280;4950;46.042;14.472;2023-02-28T07:39:19;98896.84;;;2.24;77.81
9822;BME280;4950;46.042;14.472;2023-02-28T07:41:46;98901.84;;;2.40;76.28
9822;BME280;4950;46.042;14.472;2023-02-28T07:44:12;98895.31;;;2.48;75.13
9822;BME280;4950;46.042;14.472;2023-02-28T07:46:39;98899.91;;;2.43;71.01
9822;BME280;4950;46.042;14.472;2023-02-28T07:49:07;98900.22;;;2.39;68.62
9822;BME280;4950;46.042;14.472;2023-02-28T07:51:34;98899.03;;;2.30;68.76
9822;BME280;4950;46.042;14.472;2023-02-28T07:54:01;98906.63;;;2.31;68.75
9822;BME280;4950;46.042;14.472;2023-02-28T07:56:27;98905.19;;;2.27;69.11
9822;BME280;4950;46.042;14.472;2023-02-28T07:58:54;98908.94;;;2.22;68.64
9822;BME280;4950;46.042;14.472;2023-02-28T08:01:21;98909.25;;;2.17;68.98
9822;BME280;4950;46.042;14.472;2023-02-28T08:03:48;98903.41;;;2.15;69.10
9822;BME280;4950;46.042;14.472;2023-02-28T08:06:19;98914.78;;;2.24;70.66
9822;BME280;4950;46.042;14.472;2023-02-28T08:08:46;98918.72;;;2.29;70.49
9822;BME280;4950;46.042;14.472;2023-02-28T08:11:13;98908.03;;;2.23;68.93
9822;BME280;4950;46.042;14.472;2023-02-28T08:13:40;98913.78;;;2.26;69.56
9822;BME280;4950;46.042;14.472;2023-02-28T08:16:07;98909.28;;;2.30;68.88
9822;BME280;4950;46.042;14.472;2023-02-28T08:18:34;98916.72;;;2.20;69.20
9822;BME280;4950;46.042;14.472;2023-02-28T08:21:06;98915.19;;;2.17;68.54
9822;BME280;4950;46.042;14.472;2023-02-28T08:23:34;98921.50;;;2.12;69.01
9822;BME280;4950;46.042;14.472;2023-02-28T08:26:01;98916.19;;;2.15;69.09
9822;BME280;4950;46.042;14.472;2023-02-28T08:28:27;98929.19;;;2.12;69.43
9822;BME280;4950;46.042;14.472;2023-02-28T08:30:54;98923.41;;;2.08;69.99
9822;BME280;4950;46.042;14.472;2023-02-28T08:33:21;98930.09;;;2.11;69.48
9822;BME280;4950;46.042;14.472;2023-02-28T08:35:52;98927.63;;;2.09;69.70
9822;BME280;4950;46.042;14.472;2023-02-28T08:38:19;98931.00;;;2.10;69.70
9822;BME280;4950;46.042;14.472;2023-02-28T08:40:47;98926.44;;;2.15;70.09
9822;BME280;4950;46.042;14.472;2023-02-28T08:43:13;98930.25;;;2.22;70.38
9822;BME280;4950;46.042;14.472;2023-02-28T08:45:40;98923.59;;;2.20;70.16
9822;BME280;4950;46.042;14.472;2023-02-28T08:48:07;98929.53;;;2.20;69.98
9822;BME280;4950;46.042;14.472;2023-02-28T08:50:34;98932.44;;;2.28;70.17
9822;BME280;4950;46.042;14.472;2023-02-28T08:53:00;98933.28;;;2.29;70.33
9822;BME280;4950;46.042;14.472;2023-02-28T08:55:27;98931.09;;;2.23;69.83
9822;BME280;4950;46.042;14.472;2023-02-28T08:57:55;98945.72;;;2.21;70.44
9822;BME280;4950;46.042;14.472;2023-02-28T09:00:22;98949.94;;;2.22;70.67
9822;BME280;4950;46.042;14.472;2023-02-28T09:02:49;98947.84;;;2.14;70.20
9822;BME280;4950;46.042;14.472;2023-02-28T09:05:16;98943.66;;;2.13;70.04
9822;BME280;4950;46.042;14.472;2023-02-28T09:07:42;98942.06;;;2.10;70.88
9822;BME280;4950;46.042;14.472;2023-02-28T09:10:10;98944.63;;;2.10;70.08
9822;BME280;4950;46.042;14.472;2023-02-28T09:12:37;98940.25;;;2.12;70.71
9822;BME280;4950;46.042;14.472;2023-02-28T09:15:07;98943.25;;;2.19;70.04
9822;BME280;4950;46.042;14.472;2023-02-28T09:17:34;98948.00;;;2.25;69.40
9822;BME280;4950;46.042;14.472;2023-02-28T09:20:00;98941.44;;;2.21;69.45
9822;BME280;4950;46.042;14.472;2023-02-28T09:22:27;98943.25;;;2.19;69.86
9822;BME280;4950;46.042;14.472;2023-02-28T09:24:54;98950.00;;;2.20;69.46
9822;BME280;4950;46.042;14.472;2023-02-28T09:27:21;98958.00;;;2.15;70.00
9822;BME280;4950;46.042;14.472;2023-02-28T09:29:48;98951.03;;;2.17;69.70
9822;BME280;4950;46.042;14.472;2023-02-28T09:32:16;98950.75;;;2.22;70.21
9822;BME280;4950;46.042;14.472;2023-02-28T09:34:43;98954.22;;;2.21;69.80
9822;BME280;4950;46.042;14.472;2023-02-28T09:37:09;98948.44;;;2.32;68.98
9822;BME280;4950;46.042;14.472;2023-02-28T09:39:36;98946.91;;;2.29;69.67
9822;BME280;4950;46.042;14.472;2023-02-28T09:42:03;98941.78;;;2.29;68.74
9822;BME280;4950;46.042;14.472;2023-02-28T09:44:36;98944.16;;;2.32;68.34
9822;BME280;4950;46.042;14.472;2023-02-28T09:47:08;98948.53;;;2.30;69.31
9822;BME280;4950;46.042;14.472;2023-02-28T09:49:42;98940.75;;;2.32;68.61
9822;BME280;4950;46.042;14.472;2023-02-28T09:52:14;98943.78;;;2.39;68.69
9822;BME280;4950;46.042;14.472;2023-02-28T09:54:42;98953.63;;;2.45;68.81
9822;BME280;4950;46.042;14.472;2023-02-28T09:57:15;98945.00;;;2.46;69.12
9822;BME280;4950;46.042;14.472;2023-02-28T10:00:03;98946.47;;;2.50;68.83
9822;BME280;4950;46.042;14.472;2023-02-28T10:03:02;98942.75;;;2.41;68.58
9822;BME280;4950;46.042;14.472;2023-02-28T10:05:35;98950.25;;;2.44;68.70
9822;BME280;4950;46.042;14.472;2023-02-28T10:08:09;98942.19;;;2.50;68.81
9822;BME280;4950;46.042;14.472;2023-02-28T10:10:40;98942.19;;;2.50;68.37
9822;BME280;4950;46.042;14.472;2023-02-28T10:13:16;98944.34;;;2.56;68.92
9822;BME280;4950;46.042;14.472;2023-02-28T10:15:46;98939.50;;;2.52;68.50
9822;BME280;4950;46.042;14.472;2023-02-28T10:18:21;98941.56;;;2.60;68.31
9822;BME280;4950;46.042;14.472;2023-02-28T10:20:53;98939.00;;;2.60;68.25
9822;BME280;4950;46.042;14.472;2023-02-28T10:23:25;98940.38;;;2.65;68.96
9822;BME280;4950;46.042;14.472;2023-02-28T10:25:55;98940.19;;;2.68;68.92
9822;BME280;4950;46.042;14.472;2023-02-28T10:28:24;98943.78;;;2.66;68.38
9822;BME280;4950;46.042;14.472;2023-02-28T10:30:53;98941.31;;;2.77;68.35
9822;BME280;4950;46.042;14.472;2023-02-28T10:33:23;98944.59;;;2.79;68.85
9822;BME280;4950;46.042;14.472;2023-02-28T10:35:52;98942.97;;;2.78;67.91
9822;BME280;4950;46.042;14.472;2023-02-28T10:38:21;98947.63;;;2.86;68.68
9822;BME280;4950;46.042;14.472;2023-02-28T10:40:48;98946.28;;;2.80;68.08
9822;BME280;4950;46.042;14.472;2023-02-28T10:43:22;98942.69;;;2.83;68.16
9822;BME280;4950;46.042;14.472;2023-02-28T10:45:56;98944.44;;;2.82;68.77
9822;BME280;4950;46.042;14.472;2023-02-28T10:48:33;98941.28;;;2.91;68.15
9822;BME280;4950;46.042;14.472;2023-02-28T10:51:02;98936.56;;;2.98;67.83
9822;BME280;4950;46.042;14.472;2023-02-28T10:53:35;98927.56;;;3.05;67.75
9822;BME280;4950;46.042;14.472;2023-02-28T10:56:05;98930.63;;;3.10;68.13
9822;BME280;4950;46.042;14.472;2023-02-28T10:58:46;98926.56;;;3.21;67.21
9822;BME280;4950;46.042;14.472;2023-02-28T11:01:15;98920.69;;;3.19;67.24
9822;BME280;4950;46.042;14.472;2023-02-28T11:03:43;98924.28;;;3.16;67.98
9822;BME280;4950;46.042;14.472;2023-02-28T11:06:16;98924.19;;;3.17;66.79
9822;BME280;4950;46.042;14.472;2023-02-28T11:08:49;98921.59;;;3.17;66.58
9822;BME280;4950;46.042;14.472;2023-02-28T11:11:17;98923.06;;;3.22;67.42
9822;BME280;4950;46.042;14.472;2023-02-28T11:13:46;98925.91;;;3.30;67.27
9822;BME280;4950;46.042;14.472;2023-02-28T11:16:15;98914.84;;;3.29;66.66
9822;BME280;4950;46.042;14.472;2023-02-28T11:18:46;98911.88;;;3.35;66.39
9822;BME280;4950;46.042;14.472;2023-02-28T11:21:27;98915.56;;;3.44;65.99
9822;BME280;4950;46.042;14.472;2023-02-28T11:24:00;98908.78;;;3.43;66.16
9822;BME280;4950;46.042;14.472;2023-02-28T11:26:39;98910.53;;;3.43;66.11
9822;BME280;4950;46.042;14.472;2023-02-28T11:29:16;98896.88;;;3.55;66.06
9822;BME280;4950;46.042;14.472;2023-02-28T11:31:55;98896.97;;;3.53;64.61
9822;BME280;4950;46.042;14.472;2023-02-28T11:34:27;98891.84;;;3.53;64.79
9822;BME280;4950;46.042;14.472;2023-02-28T11:36:57;98894.19;;;3.56;64.50
9822;BME280;4950;46.042;14.472;2023-02-28T11:39:26;98901.28;;;3.66;64.62
9822;BME280;4950;46.042;14.472;2023-02-28T11:42:03;98888.34;;;3.67;64.96
9822;BME280;4950;46.042;14.472;2023-02-28T11:44:43;98889.16;;;3.68;63.99
9822;BME280;4950;46.042;14.472;2023-02-28T11:47:23;98889.34;;;3.78;64.25
9822;BME280;4950;46.042;14.472;2023-02-28T11:50:01;98885.75;;;3.80;63.20
9822;BME280;4950;46.042;14.472;2023-02-28T11:52:38;98870.25;;;3.82;63.21
9822;BME280;4950;46.042;14.472;2023-02-28T11:55:15;98871.16;;;3.81;62.91
9822;BME280;4950;46.042;14.472;2023-02-28T11:57:59;98872.59;;;3.85;63.01
9822;BME280;4950;46.042;14.472;2023-02-28T12:00:39;98868.75;;;3.90;62.74
9822;BME280;4950;46.042;14.472;2023-02-28T12:03:20;98863.94;;;3.99;62.53
9822;BME280;4950;46.042;14.472;2023-02-28T12:06:00;98860.97;;;3.92;62.38
9822;BME280;4950;46.042;14.472;2023-02-28T12:08:43;98860.03;;;3.93;62.39
9822;BME280;4950;46.042;14.472;2023-02-28T12:11:17;98851.81;;;4.01;62.19
9822;BME280;4950;46.042;14.472;2023-02-28T12:13:48;98854.84;;;4.06;62.16
9822;BME280;4950;46.042;14.472;2023-02-28T12:16:37;98850.84;;;4.02;62.40
9822;BME280;4950;46.042;14.472;2023-02-28T12:19:21;98847.28;;;4.04;62.66
9822;BME280;4950;46.042;14.472;2023-02-28T12:22:03;98849.59;;;4.07;62.14
9822;BME280;4950;46.042;14.472;2023-02-28T12:24:49;98839.38;;;4.19;61.75
9822;BME280;4950;46.042;14.472;2023-02-28T12:27:23;98842.88;;;4.18;62.16
9822;BME280;4950;46.042;14.472;2023-02-28T12:29:56;98835.94;;;4.31;61.63
9822;BME280;4950;46.042;14.472;2023-02-28T12:32:27;98842.94;;;4.29;61.32
9822;BME280;4950;46.042;14.472;2023-02-28T12:35:00;98830.59;;;4.34;61.41
9822;BME280;4950;46.042;14.472;2023-02-28T12:37:31;98836.31;;;4.38;61.42
9822;BME280;4950;46.042;14.472;2023-02-28T12:40:06;98836.72;;;4.55;60.79
9822;BME280;4950;46.042;14.472;2023-02-28T12:42:39;98836.38;;;4.60;59.92
9822;BME280;4950;46.042;14.472;2023-02-28T12:45:10;98831.69;;;4.54;59.87
9822;BME280;4950;46.042;14.472;2023-02-28T12:47:42;98829.47;;;4.61;59.49
9822;BME280;4950;46.042;14.472;2023-02-28T12:50:11;98829.94;;;4.54;59.61
9822;BME280;4950;46.042;14.472;2023-02-28T12:52:43;98825.75;;;4.53;59.66
9822;BME280;4950;46.042;14.472;2023-02-28T12:55:19;98826.66;;;4.52;60.36
9822;BME280;4950;46.042;14.472;2023-02-28T12:57:57;98821.91;;;4.59;59.91
9822;BME280;4950;46.042;14.472;2023-02-28T13:00:29;98820.03;;;4.61;59.91
9822;BME280;4950;46.042;14.472;2023-02-28T13:03:44;98820.75;;;4.63;59.61
9822;BME280;4950;46.042;14.472;2023-02-28T13:06:28;98810.22;;;4.66;59.71
9822;BME280;4950;46.042;14.472;2023-02-28T13:09:05;98813.59;;;4.55;59.72
9822;BME280;4950;46.042;14.472;2023-02-28T13:11:41;98814.63;;;4.53;59.79
9822;BME280;4950;46.042;14.472;2023-02-28T13:14:20;98819.69;;;4.66;59.74
9822;BME280;4950;46.042;14.472;2023-02-28T13:17:01;98812.78;;;4.66;59.22
9822;BME280;4950;46.042;14.472;2023-02-28T13:19:31;98809.81;;;4.48;59.86
9822;BME280;4950;46.042;14.472;2023-02-28T13:21:59;98812.41;;;4.48;59.64
9822;BME280;4950;46.042;14.472;2023-02-28T13:24:45;98814.09;;;4.37;59.87
9822;BME280;4950;46.042;14.472;2023-02-28T13:27:38;98804.28;;;4.30;60.21
9822;BME280;4950;46.042;14.472;2023-02-28T13:33:25;98794.41;;;4.48;60.06
9822;BME280;4950;46.042;14.472;2023-02-28T13:36:07;98797.31;;;4.44;59.75
9822;BME280;4950;46.042;14.472;2023-02-28T13:38:37;98792.63;;;4.38;59.76
9822;BME280;4950;46.042;14.472;2023-02-28T13:44:23;98796.63;;;4.42;60.22
9822;BME280;4950;46.042;14.472;2023-02-28T13:47:19;98790.28;;;4.34;59.62
9822;BME280;4950;46.042;14.472;2023-02-28T13:49:47;98792.06;;;4.45;59.09
9822;BME280;4950;46.042;14.472;2023-02-28T13:52:18;98786.59;;;4.50;59.03